sensor_id;sensor_type;location;lat;lon;timestamp;P1;durP1;ratioP1;P2;durP2;ratioP2
54167;SDS011;68429;50.958;3.592;2023-05-19T00:00:54;28.67;;;12.45;;
54167;SDS011;68429;50.958;3.592;2023-05-19T00:03:21;15.00;;;11.07;;
54167;SDS011;68429;50.958;3.592;2023-05-19T00:05:46;20.30;;;11.15;;
54167;SDS011;68429;50.958;3.592;2023-05-19T00:08:13;17.92;;;11.27;;
54167;SDS011;68429;50.958;3.592;2023-05-19T00:10:41;20.63;;;11.73;;
54167;SDS011;68429;50.958;3.592;2023-05-19T00:13:07;16.35;;;10.65;;
54167;SDS011;68429;50.958;3.592;2023-05-19T00:15:33;23.88;;;12.55;;
54167;SDS011;68429;50.958;3.592;2023-05-19T00:17:59;19.50;;;11.70;;
54167;SDS011;68429;50.958;3.592;2023-05-19T00:20:25;17.90;;;11.65;;
54167;SDS011;68429;50.958;3.592;2023-05-19T00:22:51;26.88;;;12.77;;
54167;SDS011;68429;50.958;3.592;2023-05-19T00:25:17;17.55;;;12.02;;
54167;SDS011;68429;50.958;3.592;2023-05-19T00:27:42;20.88;;;11.82;;
54167;SDS011;68429;50.958;3.592;2023-05-19T00:30:08;22.95;;;12.95;;
54167;SDS011;68429;50.958;3.592;2023-05-19T00:32:34;28.08;;;14.73;;
54167;SDS011;68429;50.958;3.592;2023-05-19T00:35:00;27.52;;;13.93;;
54167;SDS011;68429;50.958;3.592;2023-05-19T00:37:25;28.05;;;13.68;;
54167;SDS011;68429;50.958;3.592;2023-05-19T00:39:51;20.75;;;13.88;;
54167;SDS011;68429;50.958;3.592;2023-05-19T00:42:17;25.48;;;13.85;;
54167;SDS011;68429;50.958;3.592;2023-05-19T00:44:44;23.63;;;13.27;;
54167;SDS011;68429;50.958;3.592;2023-05-19T00:47:10;24.20;;;14.50;;
54167;SDS011;68429;50.958;3.592;2023-05-19T00:49:35;25.95;;;14.75;;
54167;SDS011;68429;50.958;3.592;2023-05-19T00:52:01;29.42;;;14.20;;
54167;SDS011;68429;50.958;3.592;2023-05-19T00:54:29;25.52;;;13.43;;
54167;SDS011;68429;50.958;3.592;2023-05-19T00:56:56;24.23;;;13.82;;
54167;SDS011;68429;50.958;3.592;2023-05-19T00:59:24;23.80;;;13.93;;
54167;SDS011;68429;50.958;3.592;2023-05-19T01:01:49;30.35;;;14.73;;
54167;SDS011;68429;50.958;3.592;2023-05-19T01:04:17;30.50;;;13.95;;
54167;SDS011;68429;50.958;3.592;2023-05-19T01:06:46;24.08;;;13.98;;
54167;SDS011;68429;50.958;3.592;2023-05-19T01:09:14;26.52;;;14.07;;
54167;SDS011;68429;50.958;3.592;2023-05-19T01:11:40;20.92;;;13.35;;
54167;SDS011;68429;50.958;3.592;2023-05-19T01:14:06;22.02;;;13.43;;
54167;SDS011;68429;50.958;3.592;2023-05-19T01:22:11;26.88;;;13.90;;
54167;SDS011;68429;50.958;3.592;2023-05-19T01:30:54;27.20;;;13.52;;
54167;SDS011;68429;50.958;3.592;2023-05-19T01:33:22;21.20;;;13.40;;
54167;SDS011;68429;50.958;3.592;2023-05-19T01:35:49;21.38;;;12.60;;
54167;SDS011;68429;50.958;3.592;2023-05-19T01:38:16;20.55;;;11.73;;
54167;SDS011;68429;50.958;3.592;2023-05-19T01:40:43;24.17;;;14.43;;
54167;SDS011;68429;50.958;3.592;2023-05-19T01:43:13;28.17;;;14.70;;
54167;SDS011;68429;50.958;3.592;2023-05-19T01:45:45;26.17;;;13.85;;
54167;SDS011;68429;50.958;3.592;2023-05-19T01:48:12;29.08;;;15.38;;
54167;SDS011;68429;50.958;3.592;2023-05-19T01:50:39;27.05;;;15.70;;
54167;SDS011;68429;50.958;3.592;2023-05-19T01:53:06;22.60;;;14.27;;
54167;SDS011;68429;50.958;3.592;2023-05-19T01:55:31;29.17;;;15.82;;
54167;SDS011;68429;50.958;3.592;2023-05-19T01:58:01;28.67;;;14.30;;
54167;SDS011;68429;50.958;3.592;2023-05-19T02:00:52;24.75;;;14.40;;
54167;SDS011;68429;50.958;3.592;2023-05-19T02:12:02;26.48;;;14.07;;
54167;SDS011;68429;50.958;3.592;2023-05-19T02:14:29;24.23;;;13.48;;
54167;SDS011;68429;50.958;3.592;2023-05-19T02:17:03;27.10;;;13.55;;
54167;SDS011;68429;50.958;3.592;2023-05-19T02:19:31;26.20;;;12.93;;
54167;SDS011;68429;50.958;3.592;2023-05-19T02:21:58;24.83;;;14.38;;
54167;SDS011;68429;50.958;3.592;2023-05-19T02:24:24;22.38;;;13.82;;
54167;SDS011;68429;50.958;3.592;2023-05-19T02:26:50;21.73;;;13.45;;
54167;SDS011;68429;50.958;3.592;2023-05-19T02:29:16;28.50;;;14.43;;
54167;SDS011;68429;50.958;3.592;2023-05-19T02:31:42;21.45;;;13.52;;
54167;SDS011;68429;50.958;3.592;2023-05-19T02:34:07;24.05;;;14.32;;
54167;SDS011;68429;50.958;3.592;2023-05-19T02:36:34;21.98;;;14.48;;
54167;SDS011;68429;50.958;3.592;2023-05-19T02:39:01;20.88;;;13.30;;
54167;SDS011;68429;50.958;3.592;2023-05-19T02:41:27;31.85;;;14.73;;
54167;SDS011;68429;50.958;3.592;2023-05-19T02:43:53;25.52;;;15.10;;
54167;SDS011;68429;50.958;3.592;2023-05-19T02:46:19;25.30;;;15.50;;
54167;SDS011;68429;50.958;3.592;2023-05-19T02:48:44;24.38;;;15.02;;
54167;SDS011;68429;50.958;3.592;2023-05-19T02:51:10;32.50;;;16.80;;
54167;SDS011;68429;50.958;3.592;2023-05-19T02:53:35;28.70;;;16.98;;
54167;SDS011;68429;50.958;3.592;2023-05-19T02:56:01;22.88;;;15.55;;
54167;SDS011;68429;50.958;3.592;2023-05-19T02:58:27;27.33;;;16.08;;
54167;SDS011;68429;50.958;3.592;2023-05-19T03:00:53;27.60;;;16.15;;
54167;SDS011;68429;50.958;3.592;2023-05-19T03:03:20;25.23;;;14.70;;
54167;SDS011;68429;50.958;3.592;2023-05-19T03:05:45;24.98;;;14.93;;
54167;SDS011;68429;50.958;3.592;2023-05-19T03:08:11;23.83;;;15.05;;
54167;SDS011;68429;50.958;3.592;2023-05-19T03:10:37;23.88;;;14.15;;
54167;SDS011;68429;50.958;3.592;2023-05-19T03:13:03;28.08;;;14.82;;
54167;SDS011;68429;50.958;3.592;2023-05-19T03:15:28;25.58;;;13.95;;
54167;SDS011;68429;50.958;3.592;2023-05-19T03:17:54;26.40;;;14.50;;
54167;SDS011;68429;50.958;3.592;2023-05-19T03:20:20;23.48;;;13.93;;
54167;SDS011;68429;50.958;3.592;2023-05-19T03:22:46;22.20;;;13.10;;
54167;SDS011;68429;50.958;3.592;2023-05-19T03:25:12;22.33;;;14.13;;
54167;SDS011;68429;50.958;3.592;2023-05-19T03:27:38;25.95;;;14.57;;
54167;SDS011;68429;50.958;3.592;2023-05-19T03:30:04;29.98;;;14.27;;
54167;SDS011;68429;50.958;3.592;2023-05-19T03:32:30;25.30;;;14.93;;
54167;SDS011;68429;50.958;3.592;2023-05-19T03:34:57;24.92;;;14.65;;
54167;SDS011;68429;50.958;3.592;2023-05-19T03:37:22;27.30;;;15.43;;
54167;SDS011;68429;50.958;3.592;2023-05-19T03:39:48;34.45;;;14.65;;
54167;SDS011;68429;50.958;3.592;2023-05-19T03:42:14;32.13;;;15.20;;
54167;SDS011;68429;50.958;3.592;2023-05-19T03:44:40;32.15;;;16.05;;
54167;SDS011;68429;50.958;3.592;2023-05-19T03:47:06;28.25;;;14.38;;
54167;SDS011;68429;50.958;3.592;2023-05-19T03:49:31;27.90;;;15.60;;
54167;SDS011;68429;50.958;3.592;2023-05-19T03:51:57;28.30;;;16.08;;
54167;SDS011;68429;50.958;3.592;2023-05-19T03:54:23;30.13;;;16.05;;
54167;SDS011;68429;50.958;3.592;2023-05-19T03:56:48;26.23;;;16.15;;
54167;SDS011;68429;50.958;3.592;2023-05-19T03:59:14;26.17;;;15.65;;
54167;SDS011;68429;50.958;3.592;2023-05-19T04:01:40;25.40;;;15.60;;
54167;SDS011;68429;50.958;3.592;2023-05-19T04:04:06;27.63;;;15.80;;
54167;SDS011;68429;50.958;3.592;2023-05-19T04:06:31;30.48;;;14.77;;
54167;SDS011;68429;50.958;3.592;2023-05-19T04:08:58;23.25;;;15.10;;
54167;SDS011;68429;50.958;3.592;2023-05-19T04:11:24;33.88;;;15.52;;
54167;SDS011;68429;50.958;3.592;2023-05-19T04:13:49;27.20;;;15.52;;
54167;SDS011;68429;50.958;3.592;2023-05-19T04:16:15;27.73;;;15.02;;
54167;SDS011;68429;50.958;3.592;2023-05-19T04:18:41;29.40;;;14.63;;
54167;SDS011;68429;50.958;3.592;2023-05-19T04:21:09;23.40;;;13.98;;
54167;SDS011;68429;50.958;3.592;2023-05-19T04:23:34;26.33;;;13.70;;
54167;SDS011;68429;50.958;3.592;2023-05-19T04:26:00;21.90;;;12.65;;
54167;SDS011;68429;50.958;3.592;2023-05-19T04:28:27;28.15;;;13.07;;
54167;SDS011;68429;50.958;3.592;2023-05-19T04:30:53;17.73;;;12.27;;
54167;SDS011;68429;50.958;3.592;2023-05-19T04:33:20;22.95;;;12.40;;
54167;SDS011;68429;50.958;3.592;2023-05-19T04:35:46;22.48;;;13.55;;
54167;SDS011;68429;50.958;3.592;2023-05-19T04:38:11;25.80;;;12.52;;
54167;SDS011;68429;50.958;3.592;2023-05-19T04:40:37;25.80;;;13.38;;
54167;SDS011;68429;50.958;3.592;2023-05-19T04:43:04;30.30;;;14.52;;
54167;SDS011;68429;50.958;3.592;2023-05-19T04:45:31;27.00;;;14.88;;
54167;SDS011;68429;50.958;3.592;2023-05-19T04:47:57;23.85;;;13.80;;
54167;SDS011;68429;50.958;3.592;2023-05-19T04:50:23;20.55;;;14.07;;
54167;SDS011;68429;50.958;3.592;2023-05-19T04:52:49;22.63;;;13.45;;
54167;SDS011;68429;50.958;3.592;2023-05-19T04:55:15;24.45;;;15.25;;
54167;SDS011;68429;50.958;3.592;2023-05-19T04:57:41;29.50;;;14.27;;
54167;SDS011;68429;50.958;3.592;2023-05-19T05:00:07;27.15;;;13.77;;
54167;SDS011;68429;50.958;3.592;2023-05-19T05:02:36;27.75;;;14.00;;
54167;SDS011;68429;50.958;3.592;2023-05-19T05:05:02;21.63;;;12.98;;
54167;SDS011;68429;50.958;3.592;2023-05-19T05:07:28;17.42;;;11.82;;
54167;SDS011;68429;50.958;3.592;2023-05-19T05:09:54;22.17;;;11.93;;
54167;SDS011;68429;50.958;3.592;2023-05-19T05:12:19;19.73;;;11.23;;
54167;SDS011;68429;50.958;3.592;2023-05-19T05:14:45;23.02;;;11.88;;
54167;SDS011;68429;50.958;3.592;2023-05-19T05:17:11;19.30;;;11.80;;
54167;SDS011;68429;50.958;3.592;2023-05-19T05:19:38;19.88;;;12.73;;
54167;SDS011;68429;50.958;3.592;2023-05-19T05:22:04;24.75;;;12.45;;
54167;SDS011;68429;50.958;3.592;2023-05-19T05:24:30;18.50;;;11.50;;
54167;SDS011;68429;50.958;3.592;2023-05-19T05:26:57;21.83;;;11.00;;
54167;SDS011;68429;50.958;3.592;2023-05-19T05:29:23;27.40;;;11.50;;
54167;SDS011;68429;50.958;3.592;2023-05-19T05:31:49;19.25;;;11.05;;
54167;SDS011;68429;50.958;3.592;2023-05-19T05:34:15;20.13;;;10.48;;
54167;SDS011;68429;50.958;3.592;2023-05-19T05:36:41;22.10;;;10.75;;
54167;SDS011;68429;50.958;3.592;2023-05-19T05:39:06;18.88;;;10.35;;
54167;SDS011;68429;50.958;3.592;2023-05-19T05:41:32;23.20;;;10.15;;
54167;SDS011;68429;50.958;3.592;2023-05-19T05:44:01;13.90;;;8.38;;
54167;SDS011;68429;50.958;3.592;2023-05-19T05:46:28;15.13;;;8.68;;
54167;SDS011;68429;50.958;3.592;2023-05-19T05:48:54;19.15;;;8.52;;
54167;SDS011;68429;50.958;3.592;2023-05-19T05:51:20;20.05;;;9.40;;
54167;SDS011;68429;50.958;3.592;2023-05-19T05:53:48;13.30;;;8.10;;
54167;SDS011;68429;50.958;3.592;2023-05-19T05:56:16;15.70;;;7.55;;
54167;SDS011;68429;50.958;3.592;2023-05-19T05:58:42;14.77;;;7.90;;
54167;SDS011;68429;50.958;3.592;2023-05-19T06:01:08;14.52;;;7.53;;
54167;SDS011;68429;50.958;3.592;2023-05-19T06:03:39;15.70;;;7.30;;
54167;SDS011;68429;50.958;3.592;2023-05-19T06:06:05;15.80;;;7.70;;
54167;SDS011;68429;50.958;3.592;2023-05-19T06:08:31;17.05;;;7.25;;
54167;SDS011;68429;50.958;3.592;2023-05-19T06:10:57;10.07;;;6.47;;
54167;SDS011;68429;50.958;3.592;2023-05-19T06:13:23;13.05;;;6.65;;
54167;SDS011;68429;50.958;3.592;2023-05-19T06:15:50;11.48;;;7.20;;
54167;SDS011;68429;50.958;3.592;2023-05-19T06:18:16;12.75;;;6.55;;
54167;SDS011;68429;50.958;3.592;2023-05-19T06:20:42;14.23;;;6.30;;
54167;SDS011;68429;50.958;3.592;2023-05-19T06:23:08;13.30;;;5.72;;
54167;SDS011;68429;50.958;3.592;2023-05-19T06:25:34;11.95;;;6.03;;
54167;SDS011;68429;50.958;3.592;2023-05-19T06:27:59;12.73;;;6.85;;
54167;SDS011;68429;50.958;3.592;2023-05-19T06:30:26;12.35;;;5.45;;
54167;SDS011;68429;50.958;3.592;2023-05-19T06:32:51;11.50;;;5.13;;
54167;SDS011;68429;50.958;3.592;2023-05-19T06:35:17;9.50;;;5.05;;
54167;SDS011;68429;50.958;3.592;2023-05-19T06:37:43;8.63;;;4.07;;
54167;SDS011;68429;50.958;3.592;2023-05-19T06:40:08;9.15;;;5.07;;
54167;SDS011;68429;50.958;3.592;2023-05-19T06:42:35;11.23;;;4.68;;
54167;SDS011;68429;50.958;3.592;2023-05-19T06:45:01;9.63;;;4.95;;
54167;SDS011;68429;50.958;3.592;2023-05-19T06:47:26;9.13;;;5.03;;
54167;SDS011;68429;50.958;3.592;2023-05-19T06:49:52;20.50;;;5.00;;
54167;SDS011;68429;50.958;3.592;2023-05-19T06:52:21;13.38;;;5.38;;
54167;SDS011;68429;50.958;3.592;2023-05-19T06:54:48;15.25;;;5.18;;
54167;SDS011;68429;50.958;3.592;2023-05-19T06:57:13;7.25;;;4.50;;
54167;SDS011;68429;50.958;3.592;2023-05-19T06:59:39;8.30;;;4.82;;
54167;SDS011;68429;50.958;3.592;2023-05-19T07:02:07;12.00;;;5.47;;
54167;SDS011;68429;50.958;3.592;2023-05-19T07:04:33;14.60;;;5.05;;
54167;SDS011;68429;50.958;3.592;2023-05-19T07:06:59;13.10;;;6.20;;
54167;SDS011;68429;50.958;3.592;2023-05-19T07:09:25;13.18;;;5.72;;
54167;SDS011;68429;50.958;3.592;2023-05-19T07:11:50;12.82;;;5.80;;
54167;SDS011;68429;50.958;3.592;2023-05-19T07:14:16;10.30;;;4.93;;
54167;SDS011;68429;50.958;3.592;2023-05-19T07:16:42;13.32;;;5.30;;
54167;SDS011;68429;50.958;3.592;2023-05-19T07:19:07;6.43;;;4.43;;
54167;SDS011;68429;50.958;3.592;2023-05-19T07:21:33;8.38;;;4.43;;
54167;SDS011;68429;50.958;3.592;2023-05-19T07:23:59;8.52;;;5.45;;
54167;SDS011;68429;50.958;3.592;2023-05-19T07:26:24;12.75;;;5.00;;
54167;SDS011;68429;50.958;3.592;2023-05-19T07:28:50;11.27;;;5.85;;
54167;SDS011;68429;50.958;3.592;2023-05-19T07:31:16;12.38;;;5.85;;
54167;SDS011;68429;50.958;3.592;2023-05-19T07:33:42;12.35;;;5.05;;
54167;SDS011;68429;50.958;3.592;2023-05-19T07:36:11;12.27;;;5.00;;
54167;SDS011;68429;50.958;3.592;2023-05-19T07:38:36;11.93;;;4.93;;
54167;SDS011;68429;50.958;3.592;2023-05-19T07:41:02;10.52;;;4.82;;
54167;SDS011;68429;50.958;3.592;2023-05-19T07:43:28;10.80;;;5.07;;
54167;SDS011;68429;50.958;3.592;2023-05-19T07:45:54;10.35;;;4.55;;
54167;SDS011;68429;50.958;3.592;2023-05-19T07:48:22;14.13;;;5.25;;
54167;SDS011;68429;50.958;3.592;2023-05-19T07:50:50;12.50;;;4.75;;
54167;SDS011;68429;50.958;3.592;2023-05-19T07:53:16;11.50;;;4.88;;
54167;SDS011;68429;50.958;3.592;2023-05-19T07:55:43;13.45;;;5.65;;
54167;SDS011;68429;50.958;3.592;2023-05-19T07:58:08;13.55;;;4.45;;
54167;SDS011;68429;50.958;3.592;2023-05-19T08:00:34;10.07;;;4.68;;
54167;SDS011;68429;50.958;3.592;2023-05-19T08:03:00;9.02;;;4.40;;
54167;SDS011;68429;50.958;3.592;2023-05-19T08:05:27;11.98;;;4.78;;
54167;SDS011;68429;50.958;3.592;2023-05-19T08:07:54;9.70;;;5.00;;
54167;SDS011;68429;50.958;3.592;2023-05-19T08:10:21;8.13;;;5.10;;
54167;SDS011;68429;50.958;3.592;2023-05-19T08:12:46;14.20;;;6.18;;
54167;SDS011;68429;50.958;3.592;2023-05-19T08:15:12;8.75;;;5.03;;
54167;SDS011;68429;50.958;3.592;2023-05-19T08:17:38;11.65;;;6.20;;
54167;SDS011;68429;50.958;3.592;2023-05-19T08:20:04;10.25;;;5.40;;
54167;SDS011;68429;50.958;3.592;2023-05-19T08:22:32;12.30;;;5.90;;
54167;SDS011;68429;50.958;3.592;2023-05-19T08:24:57;17.30;;;8.02;;
54167;SDS011;68429;50.958;3.592;2023-05-19T08:27:23;20.10;;;10.27;;
54167;SDS011;68429;50.958;3.592;2023-05-19T08:29:49;25.63;;;12.90;;
54167;SDS011;68429;50.958;3.592;2023-05-19T08:32:14;61.38;;;15.77;;
54167;SDS011;68429;50.958;3.592;2023-05-19T08:34:41;19.52;;;12.75;;
54167;SDS011;68429;50.958;3.592;2023-05-19T08:37:06;22.20;;;13.90;;
54167;SDS011;68429;50.958;3.592;2023-05-19T08:39:32;31.23;;;18.73;;
54167;SDS011;68429;50.958;3.592;2023-05-19T08:41:59;30.67;;;18.65;;
54167;SDS011;68429;50.958;3.592;2023-05-19T08:44:25;35.72;;;22.58;;
54167;SDS011;68429;50.958;3.592;2023-05-19T08:46:52;35.85;;;23.13;;
54167;SDS011;68429;50.958;3.592;2023-05-19T08:49:26;44.03;;;26.90;;
54167;SDS011;68429;50.958;3.592;2023-05-19T08:51:58;46.60;;;26.58;;
54167;SDS011;68429;50.958;3.592;2023-05-19T08:54:52;38.97;;;25.60;;
54167;SDS011;68429;50.958;3.592;2023-05-19T08:57:24;39.08;;;26.55;;
54167;SDS011;68429;50.958;3.592;2023-05-19T08:59:51;48.85;;;27.75;;
54167;SDS011;68429;50.958;3.592;2023-05-19T09:02:18;30.98;;;17.92;;
54167;SDS011;68429;50.958;3.592;2023-05-19T09:04:46;40.33;;;19.95;;
54167;SDS011;68429;50.958;3.592;2023-05-19T09:07:13;45.42;;;23.45;;
54167;SDS011;68429;50.958;3.592;2023-05-19T09:09:39;29.40;;;16.25;;
54167;SDS011;68429;50.958;3.592;2023-05-19T09:12:08;27.90;;;15.52;;
54167;SDS011;68429;50.958;3.592;2023-05-19T09:14:37;25.40;;;12.52;;
54167;SDS011;68429;50.958;3.592;2023-05-19T09:17:03;26.55;;;15.02;;
54167;SDS011;68429;50.958;3.592;2023-05-19T09:19:29;44.72;;;21.00;;
54167;SDS011;68429;50.958;3.592;2023-05-19T09:21:59;26.17;;;13.70;;
54167;SDS011;68429;50.958;3.592;2023-05-19T09:24:25;31.75;;;17.98;;
54167;SDS011;68429;50.958;3.592;2023-05-19T09:26:53;22.90;;;13.38;;
54167;SDS011;68429;50.958;3.592;2023-05-19T09:29:23;22.48;;;12.75;;
54167;SDS011;68429;50.958;3.592;2023-05-19T09:31:50;21.98;;;12.32;;
54167;SDS011;68429;50.958;3.592;2023-05-19T09:34:24;24.85;;;13.20;;
54167;SDS011;68429;50.958;3.592;2023-05-19T09:36:51;24.58;;;13.23;;
54167;SDS011;68429;50.958;3.592;2023-05-19T09:39:18;18.98;;;11.93;;
54167;SDS011;68429;50.958;3.592;2023-05-19T09:41:45;25.27;;;13.32;;
54167;SDS011;68429;50.958;3.592;2023-05-19T09:44:33;16.70;;;9.35;;
54167;SDS011;68429;50.958;3.592;2023-05-19T09:46:59;25.10;;;11.43;;
54167;SDS011;68429;50.958;3.592;2023-05-19T09:49:25;20.30;;;10.73;;
54167;SDS011;68429;50.958;3.592;2023-05-19T09:54:20;15.85;;;9.82;;
54167;SDS011;68429;50.958;3.592;2023-05-19T09:57:02;18.83;;;9.48;;
54167;SDS011;68429;50.958;3.592;2023-05-19T09:59:29;31.50;;;10.02;;
54167;SDS011;68429;50.958;3.592;2023-05-19T10:01:56;18.17;;;8.27;;
54167;SDS011;68429;50.958;3.592;2023-05-19T10:04:23;23.42;;;9.50;;
54167;SDS011;68429;50.958;3.592;2023-05-19T10:06:51;17.25;;;8.32;;
54167;SDS011;68429;50.958;3.592;2023-05-19T10:09:24;13.65;;;7.22;;
54167;SDS011;68429;50.958;3.592;2023-05-19T10:11:51;17.50;;;8.32;;
54167;SDS011;68429;50.958;3.592;2023-05-19T10:14:25;14.13;;;7.65;;
54167;SDS011;68429;50.958;3.592;2023-05-19T10:16:52;16.83;;;9.77;;
54167;SDS011;68429;50.958;3.592;2023-05-19T10:19:23;14.50;;;7.55;;
54167;SDS011;68429;50.958;3.592;2023-05-19T10:21:50;14.43;;;7.60;;
54167;SDS011;68429;50.958;3.592;2023-05-19T10:24:16;14.73;;;5.43;;
54167;SDS011;68429;50.958;3.592;2023-05-19T10:26:47;12.75;;;7.53;;
54167;SDS011;68429;50.958;3.592;2023-05-19T10:29:22;18.90;;;8.18;;
54167;SDS011;68429;50.958;3.592;2023-05-19T10:31:51;15.48;;;8.27;;
54167;SDS011;68429;50.958;3.592;2023-05-19T10:40:25;14.30;;;6.85;;
54167;SDS011;68429;50.958;3.592;2023-05-19T10:42:56;12.77;;;7.90;;
54167;SDS011;68429;50.958;3.592;2023-05-19T10:45:39;14.50;;;7.10;;
54167;SDS011;68429;50.958;3.592;2023-05-19T10:48:16;13.85;;;7.18;;
54167;SDS011;68429;50.958;3.592;2023-05-19T10:50:44;10.85;;;6.28;;
54167;SDS011;68429;50.958;3.592;2023-05-19T10:53:14;16.70;;;5.95;;
54167;SDS011;68429;50.958;3.592;2023-05-19T10:55:46;8.48;;;4.40;;
54167;SDS011;68429;50.958;3.592;2023-05-19T11:06:19;9.75;;;4.63;;
54167;SDS011;68429;50.958;3.592;2023-05-19T11:09:31;8.77;;;3.67;;
54167;SDS011;68429;50.958;3.592;2023-05-19T11:14:19;11.77;;;5.07;;
54167;SDS011;68429;50.958;3.592;2023-05-19T11:16:48;9.00;;;4.30;;
54167;SDS011;68429;50.958;3.592;2023-05-19T11:19:25;5.78;;;3.05;;
54167;SDS011;68429;50.958;3.592;2023-05-19T11:21:52;9.45;;;2.10;;
54167;SDS011;68429;50.958;3.592;2023-05-19T11:24:34;13.50;;;4.13;;
54167;SDS011;68429;50.958;3.592;2023-05-19T11:29:55;13.45;;;3.50;;
54167;SDS011;68429;50.958;3.592;2023-05-19T11:32:27;7.60;;;3.55;;
54167;SDS011;68429;50.958;3.592;2023-05-19T11:35:00;15.40;;;3.30;;
54167;SDS011;68429;50.958;3.592;2023-05-19T11:37:26;9.70;;;3.80;;
54167;SDS011;68429;50.958;3.592;2023-05-19T11:39:56;14.20;;;3.65;;
54167;SDS011;68429;50.958;3.592;2023-05-19T11:42:22;9.98;;;3.10;;
54167;SDS011;68429;50.958;3.592;2023-05-19T11:44:48;8.90;;;3.35;;
54167;SDS011;68429;50.958;3.592;2023-05-19T11:47:14;10.77;;;3.30;;
54167;SDS011;68429;50.958;3.592;2023-05-19T11:49:44;4.47;;;2.65;;
54167;SDS011;68429;50.958;3.592;2023-05-19T11:52:12;6.25;;;2.90;;
54167;SDS011;68429;50.958;3.592;2023-05-19T11:54:38;35.35;;;6.70;;
54167;SDS011;68429;50.958;3.592;2023-05-19T11:57:06;9.82;;;2.78;;
54167;SDS011;68429;50.958;3.592;2023-05-19T11:59:36;8.00;;;3.00;;
54167;SDS011;68429;50.958;3.592;2023-05-19T12:04:51;3.38;;;1.52;;
54167;SDS011;68429;50.958;3.592;2023-05-19T12:07:18;5.97;;;2.50;;
54167;SDS011;68429;50.958;3.592;2023-05-19T12:09:51;8.45;;;2.35;;
54167;SDS011;68429;50.958;3.592;2023-05-19T12:12:19;6.75;;;1.92;;
54167;SDS011;68429;50.958;3.592;2023-05-19T12:14:45;9.23;;;3.13;;
54167;SDS011;68429;50.958;3.592;2023-05-19T12:17:13;5.40;;;2.55;;
54167;SDS011;68429;50.958;3.592;2023-05-19T12:19:41;5.65;;;2.33;;
54167;SDS011;68429;50.958;3.592;2023-05-19T12:22:08;7.13;;;2.42;;
54167;SDS011;68429;50.958;3.592;2023-05-19T12:24:34;6.07;;;2.20;;
54167;SDS011;68429;50.958;3.592;2023-05-19T12:29:31;5.50;;;2.10;;
54167;SDS011;68429;50.958;3.592;2023-05-19T12:31:57;6.40;;;2.13;;
54167;SDS011;68429;50.958;3.592;2023-05-19T12:34:22;3.50;;;1.73;;
54167;SDS011;68429;50.958;3.592;2023-05-19T12:36:48;14.27;;;2.78;;
54167;SDS011;68429;50.958;3.592;2023-05-19T12:39:14;140.65;;;14.10;;
54167;SDS011;68429;50.958;3.592;2023-05-19T12:41:43;4.75;;;2.35;;
54167;SDS011;68429;50.958;3.592;2023-05-19T12:44:15;6.65;;;2.55;;
54167;SDS011;68429;50.958;3.592;2023-05-19T12:46:42;8.38;;;3.08;;
54167;SDS011;68429;50.958;3.592;2023-05-19T12:49:08;1.92;;;1.38;;
54167;SDS011;68429;50.958;3.592;2023-05-19T12:51:35;7.80;;;2.47;;
54167;SDS011;68429;50.958;3.592;2023-05-19T12:54:01;5.68;;;2.58;;
54167;SDS011;68429;50.958;3.592;2023-05-19T12:56:28;5.40;;;2.10;;
54167;SDS011;68429;50.958;3.592;2023-05-19T12:58:54;7.75;;;2.55;;
54167;SDS011;68429;50.958;3.592;2023-05-19T13:01:21;8.07;;;2.92;;
54167;SDS011;68429;50.958;3.592;2023-05-19T13:03:47;5.07;;;2.78;;
54167;SDS011;68429;50.958;3.592;2023-05-19T13:06:12;7.63;;;3.00;;
54167;SDS011;68429;50.958;3.592;2023-05-19T13:08:40;14.73;;;3.60;;
54167;SDS011;68429;50.958;3.592;2023-05-19T13:11:06;18.85;;;5.13;;
54167;SDS011;68429;50.958;3.592;2023-05-19T13:13:31;5.63;;;2.30;;
54167;SDS011;68429;50.958;3.592;2023-05-19T13:15:57;4.18;;;2.20;;
54167;SDS011;68429;50.958;3.592;2023-05-19T13:18:23;6.20;;;2.95;;
54167;SDS011;68429;50.958;3.592;2023-05-19T13:20:51;8.65;;;2.70;;
54167;SDS011;68429;50.958;3.592;2023-05-19T13:23:18;13.57;;;3.05;;
54167;SDS011;68429;50.958;3.592;2023-05-19T13:25:44;181.80;;;20.35;;
54167;SDS011;68429;50.958;3.592;2023-05-19T13:28:09;20.27;;;4.25;;
54167;SDS011;68429;50.958;3.592;2023-05-19T13:30:37;6.20;;;2.67;;
54167;SDS011;68429;50.958;3.592;2023-05-19T13:33:04;7.22;;;2.90;;
54167;SDS011;68429;50.958;3.592;2023-05-19T13:35:30;9.07;;;3.20;;
54167;SDS011;68429;50.958;3.592;2023-05-19T13:38:01;5.03;;;2.60;;
54167;SDS011;68429;50.958;3.592;2023-05-19T13:40:28;3.55;;;2.05;;
54167;SDS011;68429;50.958;3.592;2023-05-19T13:42:56;6.45;;;2.85;;
54167;SDS011;68429;50.958;3.592;2023-05-19T13:45:23;7.30;;;3.10;;
54167;SDS011;68429;50.958;3.592;2023-05-19T13:47:51;10.57;;;3.17;;
54167;SDS011;68429;50.958;3.592;2023-05-19T13:50:16;9.95;;;3.65;;
54167;SDS011;68429;50.958;3.592;2023-05-19T13:52:42;7.55;;;2.90;;
54167;SDS011;68429;50.958;3.592;2023-05-19T13:55:08;7.47;;;2.88;;
54167;SDS011;68429;50.958;3.592;2023-05-19T13:57:33;12.13;;;2.88;;
54167;SDS011;68429;50.958;3.592;2023-05-19T13:59:59;5.63;;;2.75;;
54167;SDS011;68429;50.958;3.592;2023-05-19T14:02:25;13.63;;;3.70;;
54167;SDS011;68429;50.958;3.592;2023-05-19T14:04:51;10.32;;;3.40;;
54167;SDS011;68429;50.958;3.592;2023-05-19T14:07:16;5.82;;;2.80;;
54167;SDS011;68429;50.958;3.592;2023-05-19T14:09:42;8.40;;;3.40;;
54167;SDS011;68429;50.958;3.592;2023-05-19T14:12:08;14.30;;;3.35;;
54167;SDS011;68429;50.958;3.592;2023-05-19T14:14:36;250.52;;;31.75;;
54167;SDS011;68429;50.958;3.592;2023-05-19T14:17:02;10.55;;;3.22;;
54167;SDS011;68429;50.958;3.592;2023-05-19T14:19:27;5.28;;;2.78;;
54167;SDS011;68429;50.958;3.592;2023-05-19T14:21:54;8.95;;;3.05;;
54167;SDS011;68429;50.958;3.592;2023-05-19T14:24:21;8.75;;;3.15;;
54167;SDS011;68429;50.958;3.592;2023-05-19T14:26:46;25.00;;;4.97;;
54167;SDS011;68429;50.958;3.592;2023-05-19T14:29:13;8.85;;;2.80;;
54167;SDS011;68429;50.958;3.592;2023-05-19T14:31:41;12.02;;;3.65;;
54167;SDS011;68429;50.958;3.592;2023-05-19T14:34:07;10.98;;;3.38;;
54167;SDS011;68429;50.958;3.592;2023-05-19T14:36:32;9.00;;;2.97;;
54167;SDS011;68429;50.958;3.592;2023-05-19T14:38:59;10.93;;;3.97;;
54167;SDS011;68429;50.958;3.592;2023-05-19T14:41:25;9.05;;;2.75;;
54167;SDS011;68429;50.958;3.592;2023-05-19T14:43:51;7.68;;;2.85;;
54167;SDS011;68429;50.958;3.592;2023-05-19T14:46:17;6.30;;;2.90;;
54167;SDS011;68429;50.958;3.592;2023-05-19T14:48:42;9.57;;;3.00;;
54167;SDS011;68429;50.958;3.592;2023-05-19T14:51:08;11.82;;;2.38;;
54167;SDS011;68429;50.958;3.592;2023-05-19T14:53:34;9.85;;;2.72;;
54167;SDS011;68429;50.958;3.592;2023-05-19T14:55:59;9.20;;;2.80;;
54167;SDS011;68429;50.958;3.592;2023-05-19T14:58:25;10.52;;;2.90;;
54167;SDS011;68429;50.958;3.592;2023-05-19T15:00:51;8.73;;;3.00;;
54167;SDS011;68429;50.958;3.592;2023-05-19T15:03:17;10.27;;;2.95;;
54167;SDS011;68429;50.958;3.592;2023-05-19T15:05:42;7.95;;;2.97;;
54167;SDS011;68429;50.958;3.592;2023-05-19T15:08:09;10.48;;;2.47;;
54167;SDS011;68429;50.958;3.592;2023-05-19T15:10:35;9.48;;;3.10;;
54167;SDS011;68429;50.958;3.592;2023-05-19T15:13:00;5.18;;;2.28;;
54167;SDS011;68429;50.958;3.592;2023-05-19T15:15:26;114.38;;;13.35;;
54167;SDS011;68429;50.958;3.592;2023-05-19T15:17:52;33.30;;;5.57;;